Time;durP1;ratioP1;P1;durP2;ratioP2;P2;SDS_P1;SDS_P2;PMS_P1;PMS_P2;Temp;Humidity;BMP_temperature;BMP_pressure;BME280_temperature;BME280_humidity;BME280_pressure;Samples;Min_cycle;Max_cycle;Signal;HPM_P1;HPM_P2
2023/05/09 00:02:08;;;;;;;12.23;6.50;;;6.70;99.90;;;;;;2603081;54;21579;31
2023/05/09 00:04:45;;;;;;;11.32;6.45;;;6.70;99.90;;;;;;2603543;54;20806;31
2023/05/09 00:07:20;;;;;;;10.32;5.63;;;6.70;99.90;;;;;;2603274;54;20045;31
2023/05/09 00:10:02;;;;;;;12.48;7.05;;;6.60;99.90;;;;;;2603318;54;20050;31
2023/05/09 00:12:47;;;;;;;10.23;6.37;;;6.60;99.90;;;;;;2603149;54;20157;31
2023/05/09 00:15:27;;;;;;;12.05;8.10;;;6.60;99.90;;;;;;2603440;54;21451;31
2023/05/09 00:18:03;;;;;;;13.68;7.78;;;6.50;99.90;;;;;;2603475;54;20033;31
2023/05/09 00:20:40;;;;;;;12.50;7.55;;;6.50;99.90;;;;;;2603212;54;20923;31
2023/05/09 00:23:21;;;;;;;15.65;9.80;;;6.50;99.90;;;;;;2603439;54;19934;31
2023/05/09 00:26:04;;;;;;;14.07;9.33;;;6.50;99.90;;;;;;2608595;46;20078;31
2023/05/09 00:28:40;;;;;;;15.38;9.40;;;6.40;99.90;;;;;;2629008;39;21714;31
2023/05/09 00:31:15;;;;;;;;;;;6.40;99.90;;;;;;2608413;39;21454;31
2023/05/09 00:33:57;;;;;;;14.48;8.70;;;6.30;99.90;;;;;;2602905;54;20816;31
2023/05/09 00:36:34;;;;;;;11.63;7.67;;;6.30;99.90;;;;;;2603022;54;20061;31
2023/05/09 00:39:11;;;;;;;13.75;8.95;;;6.30;99.90;;;;;;2603384;54;21030;31
2023/05/09 00:54:07;;;;;;;12.90;8.02;;;6.10;99.90;;;;;;2608390;39;20342;31
2023/05/09 01:13:16;;;;;;;15.52;9.52;;;5.90;99.90;;;;;;2601700;54;20064;31
2023/05/09 01:16:00;;;;;;;15.82;8.13;;;5.90;99.90;;;;;;2602283;54;20862;31
2023/05/09 01:18:42;;;;;;;12.05;8.18;;;5.90;99.90;;;;;;2603008;54;20037;31
2023/05/09 01:21:18;;;;;;;12.90;8.70;;;5.90;99.90;;;;;;2602835;54;20046;31
2023/05/09 01:24:23;;;;;;;15.23;9.68;;;5.90;99.90;;;;;;2602866;54;20461;31
2023/05/09 01:27:09;;;;;;;13.10;9.25;;;5.80;99.90;;;;;;2621407;46;20022;31
2023/05/09 01:29:52;;;;;;;21.42;10.98;;;5.80;99.90;;;;;;2620935;46;20119;31
2023/05/09 01:32:30;;;;;;;18.58;10.68;;;5.80;99.90;;;;;;2602926;54;20046;31
2023/05/09 01:35:16;;;;;;;13.63;9.63;;;5.70;99.90;;;;;;2607404;39;21272;31
2023/05/09 01:38:02;;;;;;;13.27;8.80;;;5.70;99.90;;;;;;2602692;54;20836;31
2023/05/09 01:40:40;;;;;;;;;;;5.70;99.90;;;;;;2621526;46;20034;31
2023/05/09 01:43:17;;;;;;;12.15;7.80;;;5.70;99.90;;;;;;2612252;47;20786;31
2023/05/09 01:45:59;;;;;;;12.18;8.02;;;5.60;99.90;;;;;;2621339;46;20057;31
2023/05/09 01:48:34;;;;;;;13.52;7.13;;;5.60;99.90;;;;;;2602664;54;20026;31
2023/05/09 01:51:10;;;;;;;11.87;7.80;;;5.60;99.90;;;;;;2620610;46;20037;31
2023/05/09 01:53:46;;;;;;;14.40;7.90;;;5.60;99.90;;;;;;2621271;46;20026;31
2023/05/09 01:56:22;;;;;;;12.00;7.30;;;5.50;99.90;;;;;;2602831;54;20809;31
2023/05/09 01:59:02;;;;;;;12.50;8.20;;;5.50;99.90;;;;;;2602908;54;20308;31
2023/05/09 02:01:43;;;;;;;11.25;7.35;;;5.50;99.90;;;;;;2602761;54;20774;31
2023/05/09 02:04:22;;;;;;;14.25;8.50;;;5.50;99.90;;;;;;2603006;54;20026;31
2023/05/09 02:06:58;;;;;;;13.93;7.55;;;5.50;99.90;;;;;;2602758;54;20777;31
2023/05/09 02:09:38;;;;;;;12.05;7.78;;;5.40;99.90;;;;;;2602862;54;20060;31
2023/05/09 02:12:13;;;;;;;13.27;8.17;;;5.40;99.90;;;;;;2620058;46;20944;31
2023/05/09 02:14:49;;;;;;;11.57;7.90;;;5.40;99.90;;;;;;2601964;54;20782;31
2023/05/09 02:17:31;;;;;;;13.80;9.05;;;5.40;99.90;;;;;;2621222;46;20126;31
2023/05/09 02:20:10;;;;;;;15.80;9.35;;;5.40;99.90;;;;;;2602955;54;20049;31
2023/05/09 02:22:49;;;;;;;13.82;9.25;;;5.30;99.90;;;;;;2602068;54;20046;31
2023/05/09 02:25:29;;;;;;;15.77;8.90;;;5.30;99.90;;;;;;2601973;54;20052;31
2023/05/09 02:28:05;;;;;;;15.13;8.80;;;5.30;99.90;;;;;;2602917;54;20042;31
2023/05/09 02:30:44;;;;;;;13.65;9.32;;;5.30;99.90;;;;;;2669579;39;20310;31
2023/05/09 02:33:28;;;;;;;18.73;9.95;;;5.30;99.90;;;;;;2602819;54;20136;31
2023/05/09 02:36:07;;;;;;;14.73;9.73;;;5.20;99.90;;;;;;2602705;54;20438;31
2023/05/09 02:38:44;;;;;;;15.55;10.27;;;5.20;99.90;;;;;;2602671;54;20045;31
2023/05/09 02:41:21;;;;;;;31.45;18.65;;;5.20;99.90;;;;;;2602611;54;20850;31
2023/05/09 02:43:58;;;;;;;24.10;14.85;;;5.20;99.90;;;;;;2602529;54;20426;31
2023/05/09 02:46:35;;;;;;;17.40;10.07;;;5.10;99.90;;;;;;2602622;54;20026;31
2023/05/09 02:49:12;;;;;;;;;;;5.10;99.90;;;;;;2602210;54;20945;31
2023/05/09 02:52:08;;;;;;;12.52;7.75;;;5.10;99.90;;;;;;2602517;54;20764;31
2023/05/09 02:54:47;;;;;;;15.80;8.77;;;5.10;99.90;;;;;;2603413;54;20185;31
2023/05/09 02:57:31;;;;;;;14.60;8.68;;;5.00;99.90;;;;;;2621868;46;20132;31
2023/05/09 03:00:22;;;;;;;13.13;7.80;;;5.00;99.90;;;;;;2603557;54;20906;31
2023/05/09 03:03:04;;;;;;;15.20;8.35;;;5.00;99.90;;;;;;2603436;54;20936;31
2023/05/09 03:05:43;;;;;;;13.07;8.02;;;5.00;99.90;;;;;;2602744;54;20862;31
2023/05/09 03:08:20;;;;;;;16.02;8.23;;;5.00;99.90;;;;;;2603394;54;20915;31
2023/05/09 03:13:46;;;;;;;12.80;8.40;;;5.00;99.90;;;;;;2612938;39;20034;31
2023/05/09 03:16:25;;;;;;;12.90;7.90;;;4.90;99.90;;;;;;2618914;39;20212;31
2023/05/09 03:19:03;;;;;;;15.20;8.07;;;4.80;99.90;;;;;;2603443;54;20112;31
2023/05/09 03:21:44;;;;;;;22.25;8.05;;;4.90;99.90;;;;;;2603281;54;20049;31
2023/05/09 03:24:22;;;;;;;12.88;8.85;;;4.90;99.90;;;;;;2621528;46;20031;31
2023/05/09 03:27:03;;;;;;;15.15;7.60;;;4.80;99.90;;;;;;2621921;46;20046;31
2023/05/09 03:29:48;;;;;;;13.75;7.88;;;4.80;99.90;;;;;;2603202;54;20070;31
2023/05/09 03:32:30;;;;;;;12.40;8.05;;;4.80;99.90;;;;;;2621209;46;20026;31
2023/05/09 03:35:08;;;;;;;16.67;8.00;;;4.80;99.90;;;;;;2602598;54;20045;31
2023/05/09 03:37:50;;;;;;;12.95;8.52;;;4.80;99.90;;;;;;2621670;46;19950;31
2023/05/09 03:40:27;;;;;;;18.45;9.77;;;4.80;99.90;;;;;;2621680;46;20031;31
2023/05/09 03:43:18;;;;;;;16.95;9.10;;;4.90;99.90;;;;;;2603452;54;20842;31
2023/05/09 03:45:54;;;;;;;14.02;8.32;;;4.90;99.90;;;;;;2603189;54;20043;31
2023/05/09 03:48:33;;;;;;;12.25;8.68;;;5.00;99.90;;;;;;2603477;54;20766;31
2023/05/09 03:51:11;;;;;;;11.53;8.77;;;5.00;99.90;;;;;;2603270;54;20097;31
2023/05/09 03:53:55;;;;;;;12.70;7.70;;;5.20;99.90;;;;;;2603075;54;20123;31
2023/05/09 03:56:31;;;;;;;17.80;9.35;;;5.30;99.90;;;;;;2603141;54;20032;31
2023/05/09 03:59:09;;;;;;;13.98;8.23;;;5.50;99.90;;;;;;2603535;54;20883;31
2023/05/09 04:01:51;;;;;;;13.93;8.57;;;5.70;99.90;;;;;;2621457;46;20026;31
2023/05/09 04:04:35;;;;;;;15.48;8.23;;;5.80;99.90;;;;;;2639643;39;20562;31
2023/05/09 04:07:11;;;;;;;13.05;8.48;;;6.00;99.90;;;;;;2668120;39;20362;31
2023/05/09 04:09:48;;;;;;;;;;;6.20;99.90;;;;;;2603531;54;20835;31
2023/05/09 04:12:28;;;;;;;11.23;7.45;;;6.40;99.90;;;;;;2621562;46;20887;31
2023/05/09 04:15:15;;;;;;;12.70;7.70;;;6.60;99.90;;;;;;2603336;54;20050;31
2023/05/09 04:17:56;;;;;;;13.90;9.05;;;6.80;99.90;;;;;;2603242;54;20046;31
2023/05/09 04:23:10;;;;;;;10.65;7.40;;;7.20;99.90;;;;;;2639229;31;20395;31
2023/05/09 04:25:50;;;;;;;12.32;7.20;;;7.40;99.90;;;;;;2603400;54;20030;31
2023/05/09 04:31:25;;;;;;;13.05;6.93;;;7.80;99.90;;;;;;2603329;54;20493;31
2023/05/09 04:34:02;;;;;;;12.35;7.63;;;8.10;99.90;;;;;;2603541;54;20061;31
2023/05/09 04:36:50;;;;;;;11.43;7.80;;;8.30;99.90;;;;;;2621990;46;20023;31
2023/05/09 04:39:29;;;;;;;10.77;6.57;;;8.50;99.90;;;;;;2603277;54;20067;31
2023/05/09 04:42:18;;;;;;;14.48;7.30;;;8.70;99.90;;;;;;2602299;54;20050;31
2023/05/09 04:50:40;;;;;;;9.82;6.43;;;9.40;99.90;;;;;;2602734;54;21246;31
2023/05/09 04:53:19;;;;;;;11.18;6.25;;;9.60;99.90;;;;;;2603238;54;20030;31
2023/05/09 04:56:00;;;;;;;10.70;6.30;;;9.90;99.90;;;;;;2603236;54;20097;31
2023/05/09 04:58:37;;;;;;;9.53;6.47;;;10.00;99.90;;;;;;2602355;54;20035;31
2023/05/09 05:01:17;;;;;;;12.10;6.45;;;10.20;99.90;;;;;;2602315;54;21425;31
2023/05/09 05:03:58;;;;;;;8.65;6.05;;;10.40;99.90;;;;;;2602272;54;20043;31
2023/05/09 05:06:47;;;;;;;10.20;6.57;;;10.40;99.90;;;;;;2601904;54;20931;31
2023/05/09 05:12:13;;;;;;;10.82;6.30;;;10.90;99.90;;;;;;2602953;54;21410;31
2023/05/09 05:14:55;;;;;;;10.15;6.13;;;11.00;99.90;;;;;;2621379;46;20399;31
2023/05/09 05:17:35;;;;;;;9.90;5.55;;;11.20;99.90;;;;;;2603188;54;20032;31
2023/05/09 05:20:14;;;;;;;9.10;5.63;;;11.20;99.90;;;;;;2621087;46;20138;31
2023/05/09 05:29:02;;;;;;;7.95;5.40;;;11.50;99.90;;;;;;2621434;46;20414;31
2023/05/09 05:44:36;;;;;;;8.57;4.95;;;12.10;99.90;;;;;;2602257;54;20926;31
2023/05/09 05:53:38;;;;;;;7.60;4.75;;;12.80;99.90;;;;;;2618117;39;20438;31
2023/05/09 05:59:30;;;;;;;7.05;4.65;;;13.00;99.90;;;;;;2603100;54;20105;31
2023/05/09 06:14:25;;;;;;;7.20;5.05;;;13.60;99.90;;;;;;2601264;54;20839;31
2023/05/09 06:17:00;;;;;;;5.97;4.78;;;14.00;99.90;;;;;;2602840;54;21007;31
2023/05/09 06:19:37;;;;;;;10.85;4.80;;;13.80;99.90;;;;;;2618513;46;20089;31
2023/05/09 06:22:13;;;;;;;7.57;4.43;;;13.90;99.90;;;;;;2621061;46;20884;31
2023/05/09 06:24:53;;;;;;;6.65;4.85;;;13.90;99.90;;;;;;2602915;54;21082;31
2023/05/09 06:27:33;;;;;;;6.10;4.45;;;14.00;99.90;;;;;;2603067;54;20042;31
2023/05/09 06:33:03;;;;;;;7.80;4.70;;;14.10;99.90;;;;;;2602901;54;20026;31
2023/05/09 06:35:38;;;;;;;7.77;5.30;;;14.30;99.90;;;;;;2602839;54;20879;31
2023/05/09 06:38:13;;;;;;;5.97;4.53;;;14.20;99.90;;;;;;2602700;54;20355;31
2023/05/09 06:40:53;;;;;;;7.05;4.45;;;14.20;99.90;;;;;;2602794;54;20019;31
2023/05/09 06:43:32;;;;;;;6.20;3.73;;;14.40;99.90;;;;;;2602938;54;20129;31
2023/05/09 06:46:12;;;;;;;7.03;4.18;;;14.50;99.90;;;;;;2602203;54;22417;31
2023/05/09 06:48:50;;;;;;;7.88;4.60;;;14.70;99.90;;;;;;2621357;47;20038;31
2023/05/09 06:51:30;;;;;;;8.07;4.50;;;14.80;99.90;;;;;;2602717;54;20037;31
2023/05/09 06:54:08;;;;;;;6.85;4.13;;;15.00;99.90;;;;;;2602705;54;21166;31
2023/05/09 06:56:43;;;;;;;6.25;3.83;;;15.20;99.90;;;;;;2602727;54;20033;31
2023/05/09 06:59:20;;;;;;;7.35;3.88;;;15.20;99.90;;;;;;2602908;54;20879;31
2023/05/09 07:01:56;;;;;;;6.93;4.20;;;15.30;99.90;;;;;;2621258;47;20034;31
2023/05/09 07:04:40;;;;;;;7.55;3.70;;;15.30;99.90;;;;;;2649617;39;21252;31
2023/05/09 07:07:17;;;;;;;6.77;4.23;;;15.30;99.90;;;;;;2602816;54;20026;31
2023/05/09 07:09:54;;;;;;;7.00;3.90;;;15.20;99.90;;;;;;2621600;47;19945;31
2023/05/09 07:12:45;;;;;;;7.60;3.70;;;15.40;99.90;;;;;;2606793;39;21288;31
2023/05/09 07:15:22;;;;;;;5.97;3.58;;;15.40;99.90;;;;;;2620836;47;20631;31
2023/05/09 07:18:19;;;;;;;11.27;4.15;;;15.40;99.90;;;;;;2602738;54;20035;31
2023/05/09 07:21:01;;;;;;;7.57;3.95;;;15.60;99.90;;;;;;2621003;47;20756;31
2023/05/09 07:23:37;;;;;;;6.25;3.20;;;15.90;99.90;;;;;;2602447;54;20868;31
2023/05/09 07:26:17;;;;;;;8.73;3.42;;;15.80;99.90;;;;;;2602704;54;20046;31
2023/05/09 07:29:00;;;;;;;6.47;3.77;;;15.80;99.90;;;;;;2602752;54;20883;31
2023/05/09 07:31:38;;;;;;;11.48;3.55;;;15.60;99.90;;;;;;2601811;54;20038;31
2023/05/09 07:34:18;;;;;;;5.63;3.13;;;15.50;99.90;;;;;;2602481;54;20399;31
2023/05/09 07:37:03;;;;;;;4.38;2.92;;;15.50;99.90;;;;;;2601978;54;20143;31
2023/05/09 07:39:46;;;;;;;7.85;3.72;;;15.50;99.90;;;;;;2601855;54;20042;31
2023/05/09 07:42:23;;;;;;;4.18;2.83;;;15.70;99.90;;;;;;2603596;54;20089;31
2023/05/09 07:45:10;;;;;;;4.97;2.97;;;15.80;99.90;;;;;;2602768;54;20882;31
2023/05/09 07:47:50;;;;;;;8.02;3.20;;;15.80;99.90;;;;;;2602611;54;20820;31
2023/05/09 07:50:31;;;;;;;12.35;3.20;;;15.70;99.90;;;;;;2621927;46;20057;31
2023/05/09 07:56:05;;;;;;;3.33;2.93;;;15.90;99.90;;;;;;2603576;54;20027;31
2023/05/09 07:58:47;;;;;;;6.57;4.40;;;16.20;99.90;;;;;;2603342;54;20262;31
2023/05/09 08:01:31;;;;;;;7.13;3.27;;;16.10;99.90;;;;;;2603227;54;20885;31
2023/05/09 08:04:09;;;;;;;5.75;3.00;;;16.20;99.90;;;;;;2621412;46;20933;31
2023/05/09 08:06:56;;;;;;;8.40;3.95;;;16.40;99.90;;;;;;2639305;39;20315;31
2023/05/09 08:16:00;;;;;;;5.03;3.22;;;16.80;99.90;;;;;;2602348;54;20435;31
2023/05/09 08:37:16;;;;;;;4.80;2.50;;;17.30;97.00;;;;;;2610984;54;20019;31
2023/05/09 08:40:00;;;;;;;6.45;2.85;;;17.30;96.60;;;;;;2602286;54;20388;31
2023/05/09 08:42:43;;;;;;;5.68;2.63;;;17.30;96.80;;;;;;2603098;54;20823;31
2023/05/09 08:45:32;;;;;;;5.95;3.00;;;17.30;96.90;;;;;;2602968;54;20039;31
2023/05/09 08:51:09;;;;;;;4.55;2.67;;;17.80;95.30;;;;;;2602088;54;20912;31
2023/05/09 08:53:49;;;;;;;5.10;2.50;;;17.90;94.90;;;;;;2603436;54;20069;31
2023/05/09 08:56:33;;;;;;;5.72;2.50;;;18.00;94.90;;;;;;2602986;54;20037;31
2023/05/09 08:59:20;;;;;;;6.68;3.00;;;18.00;94.40;;;;;;2603137;54;20100;31
2023/05/09 09:02:12;;;;;;;4.80;2.67;;;18.20;94.50;;;;;;2603256;54;20422;31
2023/05/09 09:05:09;;;;;;;4.65;2.58;;;18.20;93.60;;;;;;2603189;54;20105;31
2023/05/09 09:08:12;;;;;;;4.25;2.38;;;18.30;94.90;;;;;;2603466;54;20433;31
2023/05/09 09:11:06;;;;;;;5.63;2.22;;;18.30;94.10;;;;;;2603178;54;20053;31
2023/05/09 09:13:47;;;;;;;4.55;2.20;;;18.30;94.20;;;;;;2603069;54;20027;31
2023/05/09 09:16:35;;;;;;;3.65;2.20;;;18.50;93.50;;;;;;2602903;54;20415;31
2023/05/09 09:19:09;;;;;;;;;;;18.70;93.20;;;;;;2603390;54;20921;31
2023/05/09 09:33:46;;;;;;;4.25;2.45;;;18.40;91.80;;;;;;2603128;54;20925;31
2023/05/09 09:36:50;;;;;;;3.80;2.53;;;18.40;92.30;;;;;;2602885;54;20788;31
2023/05/09 09:42:33;;;;;;;5.93;2.38;;;18.60;91.30;;;;;;2603054;54;20456;31
2023/05/09 09:45:16;;;;;;;4.65;2.08;;;18.70;91.90;;;;;;2602956;54;20752;31
2023/05/09 09:47:54;;;;;;;4.03;2.15;;;18.80;91.40;;;;;;2601968;54;20903;31
2023/05/09 09:50:39;;;;;;;9.37;2.30;;;18.60;90.50;;;;;;2602891;54;20050;31
2023/05/09 09:53:22;;;;;;;8.93;3.22;;;18.70;90.90;;;;;;2630931;31;20522;31
2023/05/09 09:56:00;;;;;;;4.85;2.10;;;18.60;91.30;;;;;;2603157;54;19935;31
2023/05/09 09:58:45;;;;;;;8.45;2.13;;;18.60;91.40;;;;;;2602979;54;20431;31
2023/05/09 10:01:27;;;;;;;3.90;2.40;;;18.80;92.30;;;;;;2602697;54;20030;31
2023/05/09 10:04:11;;;;;;;4.30;2.45;;;18.80;90.30;;;;;;2602211;54;20912;31
2023/05/09 10:07:03;;;;;;;3.90;2.05;;;18.80;91.60;;;;;;2602915;54;20104;31
2023/05/09 10:10:04;;;;;;;3.85;2.20;;;18.90;92.70;;;;;;2603071;54;20920;31
2023/05/09 10:12:43;;;;;;;5.30;2.05;;;19.00;90.40;;;;;;2621448;46;20046;31
2023/05/09 10:24:06;;;;;;;4.22;2.17;;;19.20;90.80;;;;;;2602255;54;20907;31
2023/05/09 10:29:48;;;;;;;7.13;2.53;;;19.20;90.60;;;;;;2602312;54;20030;31
2023/05/09 10:35:52;;;;;;;3.92;2.25;;;19.20;89.30;;;;;;2630731;54;20023;-94
2023/05/09 10:38:40;;;;;;;5.35;2.40;;;19.20;90.00;;;;;;2613999;46;20142;31
2023/05/09 10:41:18;;;;;;;4.20;2.17;;;19.20;90.40;;;;;;2603003;54;20810;31
2023/05/09 10:44:05;;;;;;;3.80;2.10;;;19.10;88.60;;;;;;2602896;54;20046;31
2023/05/09 10:46:53;;;;;;;5.88;2.10;;;19.00;90.10;;;;;;2602810;54;20796;31
2023/05/09 10:49:31;;;;;;;3.73;2.53;;;19.00;90.40;;;;;;2602666;54;20069;31
2023/05/09 10:52:24;;;;;;;7.22;2.40;;;19.00;89.80;;;;;;2620959;47;20049;31
2023/05/09 10:55:21;;;;;;;6.15;2.33;;;18.90;90.80;;;;;;2601433;54;20750;31
2023/05/09 10:58:03;;;;;;;3.17;2.00;;;19.00;91.20;;;;;;2620893;47;20022;31
2023/05/09 11:00:44;;;;;;;4.07;2.75;;;19.10;90.20;;;;;;2602450;54;19997;31
2023/05/09 11:03:26;;;;;;;4.65;2.70;;;18.90;90.10;;;;;;2620798;47;20470;31
2023/05/09 11:06:05;;;;;;;3.25;2.10;;;18.80;88.20;;;;;;2621378;47;20033;31
2023/05/09 11:08:44;;;;;;;4.90;2.28;;;18.80;90.40;;;;;;2620976;47;20514;31
2023/05/09 11:11:27;;;;;;;6.32;2.20;;;18.70;89.30;;;;;;2621210;47;20030;31
2023/05/09 11:17:01;;;;;;;4.38;2.03;;;18.80;91.50;;;;;;2603423;54;20031;31
2023/05/09 11:44:07;;;;;;;6.97;2.50;;;18.30;88.10;;;;;;2602545;54;20887;31
2023/05/09 11:52:35;;;;;;;5.13;1.58;;;18.50;90.90;;;;;;2618980;39;20331;31
2023/05/09 11:55:20;;;;;;;6.65;2.20;;;18.40;88.10;;;;;;2603415;54;20864;31
2023/05/09 12:01:09;;;;;;;5.78;1.95;;;18.50;88.10;;;;;;2602495;54;21381;31
2023/05/09 12:03:57;;;;;;;5.28;2.38;;;18.50;90.30;;;;;;2602429;54;20883;31
2023/05/09 12:06:34;;;;;;;3.35;1.80;;;18.50;86.20;;;;;;2602700;54;20041;31
2023/05/09 12:09:13;;;;;;;7.10;2.55;;;18.50;88.90;;;;;;2603227;54;20050;31
2023/05/09 12:12:09;;;;;;;9.02;2.08;;;18.50;87.50;;;;;;2603400;54;20026;31
2023/05/09 12:14:47;;;;;;;;;;;18.50;87.70;;;;;;2603127;54;20030;31
2023/05/09 12:17:30;;;;;;;2.55;1.90;;;18.50;88.90;;;;;;2621663;46;20402;31
2023/05/09 12:20:11;;;;;;;5.80;2.00;;;18.40;88.20;;;;;;2610423;46;20035;31
2023/05/09 12:22:49;;;;;;;5.70;1.80;;;18.40;88.50;;;;;;2602458;54;20982;31
2023/05/09 12:25:25;;;;;;;5.25;2.00;;;18.40;86.80;;;;;;2602233;54;20097;31
2023/05/09 12:28:00;;;;;;;;;;;18.40;88.10;;;;;;2603280;54;20030;31
2023/05/09 12:30:39;;;;;;;7.63;1.90;;;18.40;87.60;;;;;;2603183;54;20739;31
2023/05/09 12:33:19;;;;;;;4.70;2.15;;;18.40;86.70;;;;;;2603246;54;20029;31
2023/05/09 12:35:54;;;;;;;2.85;1.92;;;18.30;86.00;;;;;;2602968;54;21295;31
2023/05/09 12:38:36;;;;;;;6.82;2.33;;;18.20;86.90;;;;;;2621405;46;20101;31
2023/05/09 12:41:17;;;;;;;4.28;1.98;;;18.30;88.30;;;;;;2608369;39;21199;31
2023/05/09 12:44:10;;;;;;;5.40;2.03;;;18.20;86.70;;;;;;2608292;39;20334;31
2023/05/09 12:46:55;;;;;;;4.28;1.98;;;18.30;86.90;;;;;;2621564;46;20932;31
2023/05/09 12:49:30;;;;;;;2.60;1.65;;;18.30;88.80;;;;;;2603301;54;20127;31
2023/05/09 12:52:10;;;;;;;9.25;2.55;;;18.40;87.80;;;;;;2603053;54;20030;31
2023/05/09 13:06:23;;;;;;;7.10;2.20;;;18.40;84.00;;;;;;2602124;54;20571;31
2023/05/09 13:09:04;;;;;;;4.10;1.70;;;18.30;84.10;;;;;;2620514;46;20750;31
2023/05/09 13:11:42;;;;;;;5.50;2.25;;;18.40;85.10;;;;;;2602372;54;20042;31
2023/05/09 13:14:21;;;;;;;6.43;1.80;;;18.40;85.40;;;;;;2602832;54;20399;31
2023/05/09 13:16:59;;;;;;;4.45;2.00;;;18.40;85.70;;;;;;2602994;54;20092;31
2023/05/09 13:19:38;;;;;;;9.18;2.00;;;18.40;84.70;;;;;;2602566;54;21516;31
2023/05/09 13:22:22;;;;;;;7.18;2.85;;;18.40;86.00;;;;;;2618223;39;21498;31
2023/05/09 13:25:14;;;;;;;3.27;1.90;;;18.40;85.80;;;;;;2602880;54;20026;31
2023/05/09 13:27:56;;;;;;;8.65;1.90;;;18.30;86.60;;;;;;2602954;54;20153;31
2023/05/09 13:30:34;;;;;;;4.38;1.95;;;18.40;85.20;;;;;;2653708;39;21408;31
2023/05/09 13:33:16;;;;;;;4.77;2.37;;;18.30;85.20;;;;;;2602824;54;20133;31
2023/05/09 13:38:44;;;;;;;4.93;2.47;;;18.40;85.10;;;;;;2602879;54;21209;31
2023/05/09 13:41:22;;;;;;;7.35;1.65;;;18.40;84.40;;;;;;2627168;39;21395;31
2023/05/09 13:44:06;;;;;;;4.35;1.65;;;18.50;87.40;;;;;;2602059;54;20934;31
2023/05/09 13:59:32;;;;;;;5.40;1.60;;;18.40;84.90;;;;;;2602131;54;20447;31
2023/05/09 14:05:10;;;;;;;;;;;18.40;85.40;;;;;;2602096;54;20871;31
2023/05/09 14:07:51;;;;;;;5.43;2.30;;;18.50;86.10;;;;;;2602243;54;19939;31
2023/05/09 14:19:34;;;;;;;4.93;2.17;;;18.40;84.50;;;;;;2602251;54;20924;31
2023/05/09 14:25:21;;;;;;;5.80;2.50;;;18.20;85.40;;;;;;2601958;54;20842;31
2023/05/09 14:31:21;;;;;;;4.88;2.35;;;18.20;85.30;;;;;;2602255;54;20435;31
2023/05/09 14:46:47;;;;;;;6.38;2.53;;;18.00;85.20;;;;;;2602744;54;20022;31
2023/05/09 14:49:25;;;;;;;5.93;2.35;;;17.90;84.60;;;;;;2620643;46;20907;31
2023/05/09 14:52:00;;;;;;;5.63;2.00;;;18.00;84.50;;;;;;2620880;47;20799;31
2023/05/09 14:54:39;;;;;;;5.70;2.47;;;17.90;84.20;;;;;;2602652;54;20034;31
2023/05/09 14:57:21;;;;;;;6.28;2.28;;;17.90;84.20;;;;;;2602621;54;20249;31
2023/05/09 15:00:03;;;;;;;7.55;2.60;;;17.90;85.20;;;;;;2609563;47;20018;31
2023/05/09 15:03:09;;;;;;;6.90;1.73;;;17.90;84.70;;;;;;2620504;47;20967;31
2023/05/09 15:05:49;;;;;;;6.32;2.03;;;17.90;85.20;;;;;;2602742;54;20813;31
2023/05/09 15:08:30;;;;;;;6.30;2.70;;;17.80;84.00;;;;;;2602730;54;20457;31
2023/05/09 15:11:14;;;;;;;6.45;2.50;;;17.80;85.10;;;;;;2621257;47;20778;31
2023/05/09 15:14:02;;;;;;;4.55;2.22;;;17.80;84.90;;;;;;2621162;47;20469;31
2023/05/09 15:16:40;;;;;;;6.68;2.20;;;17.80;85.80;;;;;;2602561;54;20062;31
2023/05/09 15:19:25;;;;;;;5.40;2.15;;;17.80;84.40;;;;;;2617321;47;20427;31
2023/05/09 15:22:02;;;;;;;6.50;2.30;;;17.80;84.00;;;;;;2602495;54;20089;31
2023/05/09 15:24:43;;;;;;;4.85;2.10;;;17.80;84.60;;;;;;2620946;47;20866;31
2023/05/09 15:27:28;;;;;;;7.75;2.28;;;17.70;84.10;;;;;;2607530;39;21241;31
2023/05/09 15:39:31;;;;;;;3.10;2.20;;;17.70;83.80;;;;;;2609921;54;20242;31
2023/05/09 15:45:12;;;;;;;6.25;2.17;;;17.70;84.10;;;;;;2602337;54;20820;31
2023/05/09 15:48:01;;;;;;;3.90;2.10;;;17.60;83.30;;;;;;2602351;54;20895;31
2023/05/09 15:50:41;;;;;;;5.35;2.33;;;17.60;82.20;;;;;;2602509;54;20825;31
2023/05/09 15:53:26;;;;;;;4.35;1.95;;;17.60;83.60;;;;;;2620970;47;20030;31
2023/05/09 16:27:43;;;;;;;4.75;2.05;;;17.40;84.50;;;;;;2610373;54;20030;31
2023/05/09 16:39:46;;;;;;;3.63;1.97;;;17.30;84.60;;;;;;2603419;54;20089;31
2023/05/09 16:48:05;;;;;;;4.50;2.20;;;17.20;84.40;;;;;;2602585;54;20065;31
2023/05/09 16:50:52;;;;;;;4.60;2.33;;;17.20;83.60;;;;;;2605072;46;20085;31
2023/05/09 17:21:10;;;;;;;6.95;2.35;;;16.80;86.20;;;;;;2602532;54;20042;31
2023/05/09 17:24:16;;;;;;;5.57;2.20;;;16.80;86.70;;;;;;2621356;46;21007;31
2023/05/09 17:36:15;;;;;;;6.32;2.40;;;16.60;85.60;;;;;;2601960;54;20030;31
2023/05/09 17:39:00;;;;;;;4.90;2.30;;;16.60;86.90;;;;;;2601674;54;20472;31
2023/05/09 17:44:38;;;;;;;8.65;1.90;;;16.50;88.20;;;;;;2607551;39;21534;31
2023/05/09 18:21:18;;;;;;;5.03;2.40;;;15.70;90.90;;;;;;2602745;54;20294;31
2023/05/09 18:23:57;;;;;;;7.45;2.33;;;15.60;91.10;;;;;;2602525;54;20038;31
2023/05/09 18:26:40;;;;;;;5.97;2.05;;;15.60;91.10;;;;;;2602709;54;20053;31
2023/05/09 18:35:18;;;;;;;3.65;2.20;;;15.40;91.70;;;;;;2602805;54;20923;31
2023/05/09 18:40:46;;;;;;;6.68;2.20;;;15.20;92.00;;;;;;2602859;47;20837;31
2023/05/09 18:49:35;;;;;;;6.18;2.47;;;15.00;92.40;;;;;;2609994;54;20030;31
2023/05/09 18:55:28;;;;;;;4.50;2.10;;;14.90;92.80;;;;;;2610090;54;20932;31
2023/05/09 18:58:07;;;;;;;3.83;2.90;;;14.80;93.00;;;;;;2602812;54;20027;31
2023/05/09 19:00:45;;;;;;;7.90;3.53;;;14.70;93.40;;;;;;2602632;54;19941;31
2023/05/09 19:03:26;;;;;;;6.18;3.63;;;14.70;94.50;;;;;;2620798;47;20027;31
2023/05/09 19:06:05;;;;;;;6.68;3.78;;;14.60;94.50;;;;;;2621375;47;20088;31
2023/05/09 19:08:42;;;;;;;6.15;3.80;;;14.50;94.80;;;;;;2602682;54;20445;31
2023/05/09 19:11:28;;;;;;;5.65;3.90;;;14.40;95.10;;;;;;2602444;54;20907;31
2023/05/09 19:14:07;;;;;;;10.90;4.00;;;14.40;95.60;;;;;;2602560;54;20022;31
2023/05/09 19:16:48;;;;;;;6.40;4.45;;;14.20;95.70;;;;;;2602501;54;20027;31
2023/05/09 19:19:32;;;;;;;8.60;4.25;;;14.20;96.20;;;;;;2620916;47;20031;31
2023/05/09 19:22:09;;;;;;;6.53;4.07;;;14.10;96.30;;;;;;2620076;47;20939;31
2023/05/09 19:24:50;;;;;;;10.20;4.20;;;14.00;96.50;;;;;;2602565;54;20930;31
2023/05/09 19:27:32;;;;;;;7.18;3.75;;;13.90;97.00;;;;;;2602580;54;20046;31
2023/05/09 19:30:15;;;;;;;7.05;3.63;;;13.80;97.30;;;;;;2602477;54;22237;31
2023/05/09 19:32:50;;;;;;;7.45;3.30;;;13.70;97.40;;;;;;2682907;31;20437;31
2023/05/09 19:35:28;;;;;;;6.90;3.78;;;13.60;97.60;;;;;;2602890;54;20085;31
2023/05/09 19:38:07;;;;;;;9.02;3.80;;;13.50;98.00;;;;;;2603549;54;19941;31
2023/05/09 19:40:44;;;;;;;7.93;4.33;;;13.50;98.20;;;;;;2621786;46;20774;31
2023/05/09 19:43:27;;;;;;;6.80;4.00;;;13.40;98.30;;;;;;2602439;54;20265;31
2023/05/09 19:46:07;;;;;;;8.88;4.03;;;13.40;98.60;;;;;;2602567;54;20027;31
2023/05/09 19:48:45;;;;;;;5.72;4.07;;;13.30;98.80;;;;;;2603300;54;19939;31
2023/05/09 19:51:23;;;;;;;8.20;3.88;;;13.30;99.10;;;;;;2622036;46;20885;31
2023/05/09 19:54:06;;;;;;;6.07;3.63;;;13.20;99.30;;;;;;2603460;54;20853;31
2023/05/09 19:56:44;;;;;;;7.43;3.75;;;13.20;99.60;;;;;;2621934;46;20755;31
2023/05/09 19:59:25;;;;;;;6.45;3.60;;;13.10;99.80;;;;;;2603334;54;20104;31
2023/05/09 20:02:05;;;;;;;6.43;3.58;;;13.00;99.90;;;;;;2621881;46;20034;31
2023/05/09 20:04:48;;;;;;;8.87;3.43;;;13.00;99.90;;;;;;2620564;39;20382;31
2023/05/09 20:07:25;;;;;;;6.20;3.53;;;12.90;99.90;;;;;;2603275;54;20800;31
2023/05/09 20:10:02;;;;;;;6.93;3.53;;;12.90;99.90;;;;;;2603472;54;20956;31
2023/05/09 20:12:39;;;;;;;6.40;3.80;;;12.80;99.90;;;;;;2621747;46;20533;31
2023/05/09 20:15:20;;;;;;;8.90;3.90;;;12.80;99.90;;;;;;2621828;46;20789;31
2023/05/09 20:17:58;;;;;;;4.55;3.38;;;12.70;99.90;;;;;;2621455;46;20265;31
2023/05/09 20:20:33;;;;;;;6.53;3.65;;;12.70;99.90;;;;;;2603202;54;20891;31
2023/05/09 20:23:11;;;;;;;6.00;3.05;;;12.70;99.90;;;;;;2621306;46;20030;31
2023/05/09 20:25:50;;;;;;;7.55;3.40;;;12.60;99.90;;;;;;2621629;46;20030;31
2023/05/09 20:28:30;;;;;;;7.43;3.40;;;12.60;99.90;;;;;;2621784;46;20101;31
2023/05/09 20:31:09;;;;;;;3.95;2.72;;;12.50;99.90;;;;;;2602465;54;20884;31
2023/05/09 20:33:46;;;;;;;7.25;3.17;;;12.50;99.90;;;;;;2621531;46;20893;31
2023/05/09 20:36:25;;;;;;;11.15;4.13;;;12.50;99.90;;;;;;2603153;54;20726;31
2023/05/09 20:39:02;;;;;;;5.05;3.20;;;12.40;99.90;;;;;;2602261;54;20851;31
2023/05/09 20:41:40;;;;;;;5.70;3.30;;;12.30;99.90;;;;;;2603074;54;20036;31
2023/05/09 20:44:16;;;;;;;5.35;3.10;;;12.30;99.90;;;;;;2603128;54;20897;31
2023/05/09 20:46:55;;;;;;;5.13;3.25;;;12.30;99.90;;;;;;2621496;46;20047;31